sensor_id;sensor_type;location;lat;lon;timestamp;P1;durP1;ratioP1;P2;durP2;ratioP2
39612;SDS011;25303;48.896;13.342;2023-06-14T00:01:59;2.40;;;1.30;;
39612;SDS011;25303;48.896;13.342;2023-06-14T00:04:42;3.95;;;1.52;;
39612;SDS011;25303;48.896;13.342;2023-06-14T00:07:33;3.33;;;1.42;;
39612;SDS011;25303;48.896;13.342;2023-06-14T00:10:18;3.08;;;1.50;;
39612;SDS011;25303;48.896;13.342;2023-06-14T00:13:01;2.50;;;1.50;;
39612;SDS011;25303;48.896;13.342;2023-06-14T00:15:45;2.63;;;1.70;;
39612;SDS011;25303;48.896;13.342;2023-06-14T00:18:28;3.53;;;1.60;;
39612;SDS011;25303;48.896;13.342;2023-06-14T00:21:12;5.25;;;1.40;;
39612;SDS011;25303;48.896;13.342;2023-06-14T00:23:55;3.30;;;1.40;;
39612;SDS011;25303;48.896;13.342;2023-06-14T00:26:40;3.83;;;1.40;;
39612;SDS011;25303;48.896;13.342;2023-06-14T00:29:23;1.58;;;1.20;;
39612;SDS011;25303;48.896;13.342;2023-06-14T00:32:07;2.80;;;1.17;;
39612;SDS011;25303;48.896;13.342;2023-06-14T00:34:50;2.72;;;1.10;;
39612;SDS011;25303;48.896;13.342;2023-06-14T00:37:33;2.10;;;1.38;;
39612;SDS011;25303;48.896;13.342;2023-06-14T00:40:16;1.77;;;1.17;;
39612;SDS011;25303;48.896;13.342;2023-06-14T00:43:01;2.20;;;1.20;;
39612;SDS011;25303;48.896;13.342;2023-06-14T00:48:27;3.35;;;1.30;;
39612;SDS011;25303;48.896;13.342;2023-06-14T00:51:11;2.77;;;1.50;;
39612;SDS011;25303;48.896;13.342;2023-06-14T00:53:54;1.98;;;1.30;;
39612;SDS011;25303;48.896;13.342;2023-06-14T00:56:38;2.97;;;1.30;;
39612;SDS011;25303;48.896;13.342;2023-06-14T00:59:23;2.83;;;1.30;;
39612;SDS011;25303;48.896;13.342;2023-06-14T01:02:06;2.50;;;1.50;;
39612;SDS011;25303;48.896;13.342;2023-06-14T01:04:50;2.78;;;1.70;;
39612;SDS011;25303;48.896;13.342;2023-06-14T01:07:41;3.05;;;1.48;;
39612;SDS011;25303;48.896;13.342;2023-06-14T01:10:36;2.33;;;1.30;;
39612;SDS011;25303;48.896;13.342;2023-06-14T01:13:27;2.72;;;1.35;;
39612;SDS011;25303;48.896;13.342;2023-06-14T01:16:14;2.70;;;1.50;;
39612;SDS011;25303;48.896;13.342;2023-06-14T01:18:57;2.55;;;1.50;;
39612;SDS011;25303;48.896;13.342;2023-06-14T01:21:40;2.50;;;1.50;;
39612;SDS011;25303;48.896;13.342;2023-06-14T01:24:25;2.20;;;1.45;;
39612;SDS011;25303;48.896;13.342;2023-06-14T01:27:10;3.65;;;1.20;;
39612;SDS011;25303;48.896;13.342;2023-06-14T01:29:57;2.63;;;1.23;;
39612;SDS011;25303;48.896;13.342;2023-06-14T01:32:41;2.70;;;1.43;;
39612;SDS011;25303;48.896;13.342;2023-06-14T01:35:24;3.10;;;1.60;;
39612;SDS011;25303;48.896;13.342;2023-06-14T01:38:08;2.10;;;1.35;;
39612;SDS011;25303;48.896;13.342;2023-06-14T01:40:54;3.53;;;1.50;;
39612;SDS011;25303;48.896;13.342;2023-06-14T01:43:39;2.42;;;1.50;;
39612;SDS011;25303;48.896;13.342;2023-06-14T01:46:24;3.80;;;1.65;;
39612;SDS011;25303;48.896;13.342;2023-06-14T01:49:08;3.15;;;1.48;;
39612;SDS011;25303;48.896;13.342;2023-06-14T01:51:51;3.78;;;1.75;;
39612;SDS011;25303;48.896;13.342;2023-06-14T01:54:34;2.70;;;1.27;;
39612;SDS011;25303;48.896;13.342;2023-06-14T01:57:20;2.85;;;1.30;;
39612;SDS011;25303;48.896;13.342;2023-06-14T02:00:04;2.20;;;1.50;;
39612;SDS011;25303;48.896;13.342;2023-06-14T02:02:54;2.88;;;1.77;;
39612;SDS011;25303;48.896;13.342;2023-06-14T02:05:37;6.57;;;1.60;;
39612;SDS011;25303;48.896;13.342;2023-06-14T02:08:21;2.35;;;1.40;;
39612;SDS011;25303;48.896;13.342;2023-06-14T02:11:05;2.88;;;1.50;;
39612;SDS011;25303;48.896;13.342;2023-06-14T02:13:50;2.20;;;1.33;;
39612;SDS011;25303;48.896;13.342;2023-06-14T02:19:18;2.40;;;1.52;;
39612;SDS011;25303;48.896;13.342;2023-06-14T02:22:03;3.80;;;2.00;;
39612;SDS011;25303;48.896;13.342;2023-06-14T02:24:48;2.33;;;1.63;;
39612;SDS011;25303;48.896;13.342;2023-06-14T02:27:42;2.70;;;1.60;;
39612;SDS011;25303;48.896;13.342;2023-06-14T02:30:26;4.00;;;1.75;;
39612;SDS011;25303;48.896;13.342;2023-06-14T02:33:10;3.80;;;1.70;;
39612;SDS011;25303;48.896;13.342;2023-06-14T02:35:54;2.55;;;1.58;;
39612;SDS011;25303;48.896;13.342;2023-06-14T02:38:37;2.78;;;1.70;;
39612;SDS011;25303;48.896;13.342;2023-06-14T02:41:23;3.15;;;1.40;;
39612;SDS011;25303;48.896;13.342;2023-06-14T02:44:07;4.93;;;1.80;;
39612;SDS011;25303;48.896;13.342;2023-06-14T02:46:51;2.95;;;1.63;;
39612;SDS011;25303;48.896;13.342;2023-06-14T02:49:34;2.38;;;1.73;;
39612;SDS011;25303;48.896;13.342;2023-06-14T02:52:17;2.88;;;1.58;;
39612;SDS011;25303;48.896;13.342;2023-06-14T02:55:02;2.40;;;1.55;;
39612;SDS011;25303;48.896;13.342;2023-06-14T02:57:45;2.20;;;1.27;;
39612;SDS011;25303;48.896;13.342;2023-06-14T03:00:31;2.80;;;1.35;;
39612;SDS011;25303;48.896;13.342;2023-06-14T03:03:15;2.88;;;1.70;;
39612;SDS011;25303;48.896;13.342;2023-06-14T03:06:05;2.35;;;1.40;;
39612;SDS011;25303;48.896;13.342;2023-06-14T03:08:51;2.90;;;1.60;;
39612;SDS011;25303;48.896;13.342;2023-06-14T03:11:37;3.88;;;1.40;;
39612;SDS011;25303;48.896;13.342;2023-06-14T03:14:20;1.75;;;1.27;;
39612;SDS011;25303;48.896;13.342;2023-06-14T03:17:04;3.30;;;1.40;;
39612;SDS011;25303;48.896;13.342;2023-06-14T03:19:54;3.28;;;1.40;;
39612;SDS011;25303;48.896;13.342;2023-06-14T03:22:37;3.60;;;1.67;;
39612;SDS011;25303;48.896;13.342;2023-06-14T03:25:21;2.83;;;1.80;;
39612;SDS011;25303;48.896;13.342;2023-06-14T03:28:05;3.65;;;2.10;;
39612;SDS011;25303;48.896;13.342;2023-06-14T03:30:49;2.30;;;1.50;;
39612;SDS011;25303;48.896;13.342;2023-06-14T03:33:33;4.50;;;2.10;;
39612;SDS011;25303;48.896;13.342;2023-06-14T03:36:17;3.63;;;1.95;;
39612;SDS011;25303;48.896;13.342;2023-06-14T03:39:00;3.95;;;1.70;;
39612;SDS011;25303;48.896;13.342;2023-06-14T03:41:44;4.32;;;1.80;;
39612;SDS011;25303;48.896;13.342;2023-06-14T03:44:27;2.83;;;1.45;;
39612;SDS011;25303;48.896;13.342;2023-06-14T03:47:10;4.95;;;1.50;;
39612;SDS011;25303;48.896;13.342;2023-06-14T03:49:53;3.58;;;1.23;;
39612;SDS011;25303;48.896;13.342;2023-06-14T03:52:37;3.65;;;1.48;;
39612;SDS011;25303;48.896;13.342;2023-06-14T03:55:25;2.85;;;1.60;;
39612;SDS011;25303;48.896;13.342;2023-06-14T03:58:13;3.50;;;1.88;;
39612;SDS011;25303;48.896;13.342;2023-06-14T04:00:56;3.10;;;1.58;;
39612;SDS011;25303;48.896;13.342;2023-06-14T04:03:40;2.67;;;1.50;;
39612;SDS011;25303;48.896;13.342;2023-06-14T04:06:23;3.63;;;1.58;;
39612;SDS011;25303;48.896;13.342;2023-06-14T04:09:15;3.75;;;1.38;;
39612;SDS011;25303;48.896;13.342;2023-06-14T04:12:00;3.13;;;1.35;;
39612;SDS011;25303;48.896;13.342;2023-06-14T04:14:46;2.70;;;1.35;;
39612;SDS011;25303;48.896;13.342;2023-06-14T04:17:29;2.70;;;1.60;;
39612;SDS011;25303;48.896;13.342;2023-06-14T04:20:14;4.18;;;1.60;;
39612;SDS011;25303;48.896;13.342;2023-06-14T04:23:10;2.10;;;1.37;;
39612;SDS011;25303;48.896;13.342;2023-06-14T04:25:56;2.65;;;1.23;;
39612;SDS011;25303;48.896;13.342;2023-06-14T04:28:43;2.03;;;1.50;;
39612;SDS011;25303;48.896;13.342;2023-06-14T04:31:27;1.95;;;1.35;;
39612;SDS011;25303;48.896;13.342;2023-06-14T04:34:11;3.33;;;1.20;;
39612;SDS011;25303;48.896;13.342;2023-06-14T04:37:01;2.25;;;1.30;;
39612;SDS011;25303;48.896;13.342;2023-06-14T04:39:48;1.80;;;1.20;;
39612;SDS011;25303;48.896;13.342;2023-06-14T04:42:34;9.43;;;1.58;;
39612;SDS011;25303;48.896;13.342;2023-06-14T04:45:21;1.98;;;1.30;;
39612;SDS011;25303;48.896;13.342;2023-06-14T04:48:05;2.00;;;1.30;;
39612;SDS011;25303;48.896;13.342;2023-06-14T04:50:49;2.20;;;1.40;;
39612;SDS011;25303;48.896;13.342;2023-06-14T04:53:34;1.98;;;1.20;;
39612;SDS011;25303;48.896;13.342;2023-06-14T04:56:19;2.83;;;1.50;;
39612;SDS011;25303;48.896;13.342;2023-06-14T04:59:05;8.50;;;1.63;;
39612;SDS011;25303;48.896;13.342;2023-06-14T05:01:48;4.63;;;1.50;;
39612;SDS011;25303;48.896;13.342;2023-06-14T05:04:32;2.42;;;1.40;;
39612;SDS011;25303;48.896;13.342;2023-06-14T05:07:16;3.42;;;1.50;;
39612;SDS011;25303;48.896;13.342;2023-06-14T05:09:59;2.00;;;1.17;;
39612;SDS011;25303;48.896;13.342;2023-06-14T05:12:43;4.80;;;1.17;;
39612;SDS011;25303;48.896;13.342;2023-06-14T05:15:32;1.88;;;1.10;;
39612;SDS011;25303;48.896;13.342;2023-06-14T05:18:16;3.35;;;1.40;;
39612;SDS011;25303;48.896;13.342;2023-06-14T05:20:59;4.18;;;1.92;;
39612;SDS011;25303;48.896;13.342;2023-06-14T05:23:42;2.50;;;1.50;;
39612;SDS011;25303;48.896;13.342;2023-06-14T05:26:26;1.88;;;1.30;;
39612;SDS011;25303;48.896;13.342;2023-06-14T05:29:10;1.80;;;1.20;;
39612;SDS011;25303;48.896;13.342;2023-06-14T05:31:55;2.20;;;1.60;;
39612;SDS011;25303;48.896;13.342;2023-06-14T05:34:38;6.07;;;1.70;;
39612;SDS011;25303;48.896;13.342;2023-06-14T05:37:21;9.73;;;1.77;;
39612;SDS011;25303;48.896;13.342;2023-06-14T05:40:05;2.58;;;1.50;;
39612;SDS011;25303;48.896;13.342;2023-06-14T05:42:50;3.22;;;1.80;;
39612;SDS011;25303;48.896;13.342;2023-06-14T05:45:33;4.45;;;1.83;;
39612;SDS011;25303;48.896;13.342;2023-06-14T05:48:17;2.00;;;1.50;;
39612;SDS011;25303;48.896;13.342;2023-06-14T05:53:44;2.03;;;1.15;;
39612;SDS011;25303;48.896;13.342;2023-06-14T05:56:27;3.58;;;1.42;;
39612;SDS011;25303;48.896;13.342;2023-06-14T05:59:11;9.35;;;1.92;;
39612;SDS011;25303;48.896;13.342;2023-06-14T06:01:54;2.20;;;1.58;;
39612;SDS011;25303;48.896;13.342;2023-06-14T06:04:39;3.88;;;1.77;;
39612;SDS011;25303;48.896;13.342;2023-06-14T06:07:22;2.63;;;1.75;;
39612;SDS011;25303;48.896;13.342;2023-06-14T06:10:05;2.63;;;1.55;;
39612;SDS011;25303;48.896;13.342;2023-06-14T06:12:50;4.45;;;1.88;;
39612;SDS011;25303;48.896;13.342;2023-06-14T06:15:33;3.13;;;1.90;;
39612;SDS011;25303;48.896;13.342;2023-06-14T06:18:17;1.98;;;1.40;;
39612;SDS011;25303;48.896;13.342;2023-06-14T06:21:02;2.97;;;1.67;;
39612;SDS011;25303;48.896;13.342;2023-06-14T06:23:46;2.17;;;1.27;;
39612;SDS011;25303;48.896;13.342;2023-06-14T06:26:29;2.75;;;1.58;;
39612;SDS011;25303;48.896;13.342;2023-06-14T06:29:12;4.00;;;2.05;;
39612;SDS011;25303;48.896;13.342;2023-06-14T06:31:55;5.95;;;1.92;;
39612;SDS011;25303;48.896;13.342;2023-06-14T06:34:38;7.53;;;1.98;;
39612;SDS011;25303;48.896;13.342;2023-06-14T06:37:23;3.30;;;1.80;;
39612;SDS011;25303;48.896;13.342;2023-06-14T06:40:06;2.47;;;1.80;;
39612;SDS011;25303;48.896;13.342;2023-06-14T06:42:50;2.20;;;1.67;;
39612;SDS011;25303;48.896;13.342;2023-06-14T06:45:34;4.13;;;1.83;;
39612;SDS011;25303;48.896;13.342;2023-06-14T06:48:17;1.92;;;1.50;;
39612;SDS011;25303;48.896;13.342;2023-06-14T06:51:00;4.22;;;1.95;;
39612;SDS011;25303;48.896;13.342;2023-06-14T06:53:47;3.55;;;2.03;;
39612;SDS011;25303;48.896;13.342;2023-06-14T06:56:35;4.05;;;1.95;;
39612;SDS011;25303;48.896;13.342;2023-06-14T06:59:18;5.88;;;2.00;;
39612;SDS011;25303;48.896;13.342;2023-06-14T07:02:02;4.35;;;1.95;;
39612;SDS011;25303;48.896;13.342;2023-06-14T07:04:46;5.40;;;2.03;;
39612;SDS011;25303;48.896;13.342;2023-06-14T07:07:29;3.22;;;2.10;;
39612;SDS011;25303;48.896;13.342;2023-06-14T07:10:13;3.85;;;2.20;;
39612;SDS011;25303;48.896;13.342;2023-06-14T07:12:56;4.28;;;1.98;;
39612;SDS011;25303;48.896;13.342;2023-06-14T07:15:39;5.43;;;1.92;;
39612;SDS011;25303;48.896;13.342;2023-06-14T07:18:22;7.60;;;2.50;;
39612;SDS011;25303;48.896;13.342;2023-06-14T07:21:05;4.43;;;2.05;;
39612;SDS011;25303;48.896;13.342;2023-06-14T07:23:48;4.18;;;2.15;;
39612;SDS011;25303;48.896;13.342;2023-06-14T07:26:33;5.50;;;2.28;;
39612;SDS011;25303;48.896;13.342;2023-06-14T07:31:59;4.18;;;2.25;;
39612;SDS011;25303;48.896;13.342;2023-06-14T07:34:43;3.03;;;2.30;;
39612;SDS011;25303;48.896;13.342;2023-06-14T07:37:26;3.92;;;1.92;;
39612;SDS011;25303;48.896;13.342;2023-06-14T07:40:09;3.50;;;2.22;;
39612;SDS011;25303;48.896;13.342;2023-06-14T07:42:54;4.32;;;2.33;;
39612;SDS011;25303;48.896;13.342;2023-06-14T07:45:37;4.57;;;2.30;;
39612;SDS011;25303;48.896;13.342;2023-06-14T07:48:31;6.82;;;2.58;;
39612;SDS011;25303;48.896;13.342;2023-06-14T07:51:15;5.73;;;1.90;;
39612;SDS011;25303;48.896;13.342;2023-06-14T07:53:59;4.78;;;2.22;;
39612;SDS011;25303;48.896;13.342;2023-06-14T07:56:44;3.92;;;2.28;;
39612;SDS011;25303;48.896;13.342;2023-06-14T07:59:30;4.00;;;2.08;;
39612;SDS011;25303;48.896;13.342;2023-06-14T08:02:14;5.30;;;2.00;;
39612;SDS011;25303;48.896;13.342;2023-06-14T08:04:57;3.08;;;1.83;;
39612;SDS011;25303;48.896;13.342;2023-06-14T08:07:40;3.30;;;2.10;;
39612;SDS011;25303;48.896;13.342;2023-06-14T08:10:24;2.88;;;1.70;;
39612;SDS011;25303;48.896;13.342;2023-06-14T08:13:07;4.13;;;1.88;;
39612;SDS011;25303;48.896;13.342;2023-06-14T08:15:51;4.88;;;1.67;;
39612;SDS011;25303;48.896;13.342;2023-06-14T08:18:35;2.90;;;1.83;;
39612;SDS011;25303;48.896;13.342;2023-06-14T08:21:18;4.05;;;2.30;;
39612;SDS011;25303;48.896;13.342;2023-06-14T08:24:01;3.58;;;2.13;;
39612;SDS011;25303;48.896;13.342;2023-06-14T08:26:45;5.15;;;2.38;;
39612;SDS011;25303;48.896;13.342;2023-06-14T08:29:28;2.95;;;1.58;;
39612;SDS011;25303;48.896;13.342;2023-06-14T08:32:13;4.38;;;2.00;;
39612;SDS011;25303;48.896;13.342;2023-06-14T08:34:56;2.40;;;1.63;;
39612;SDS011;25303;48.896;13.342;2023-06-14T08:37:59;3.03;;;1.83;;
39612;SDS011;25303;48.896;13.342;2023-06-14T08:40:43;4.00;;;1.60;;
39612;SDS011;25303;48.896;13.342;2023-06-14T08:43:30;3.72;;;1.75;;
39612;SDS011;25303;48.896;13.342;2023-06-14T08:46:13;3.30;;;1.58;;
39612;SDS011;25303;48.896;13.342;2023-06-14T08:49:02;4.18;;;2.05;;
39612;SDS011;25303;48.896;13.342;2023-06-14T08:51:48;3.20;;;2.17;;
39612;SDS011;25303;48.896;13.342;2023-06-14T08:54:37;3.47;;;2.03;;
39612;SDS011;25303;48.896;13.342;2023-06-14T08:57:25;2.33;;;1.50;;
39612;SDS011;25303;48.896;13.342;2023-06-14T09:00:12;2.42;;;1.60;;
39612;SDS011;25303;48.896;13.342;2023-06-14T09:05:41;3.33;;;1.90;;
39612;SDS011;25303;48.896;13.342;2023-06-14T09:08:25;4.05;;;1.70;;
39612;SDS011;25303;48.896;13.342;2023-06-14T09:11:12;2.97;;;1.42;;
39612;SDS011;25303;48.896;13.342;2023-06-14T09:13:56;4.57;;;1.65;;
39612;SDS011;25303;48.896;13.342;2023-06-14T09:16:39;2.65;;;1.27;;
39612;SDS011;25303;48.896;13.342;2023-06-14T09:19:23;2.13;;;1.40;;
39612;SDS011;25303;48.896;13.342;2023-06-14T09:22:08;2.55;;;1.48;;
39612;SDS011;25303;48.896;13.342;2023-06-14T09:24:53;1.98;;;1.50;;
39612;SDS011;25303;48.896;13.342;2023-06-14T09:27:36;3.80;;;1.63;;
39612;SDS011;25303;48.896;13.342;2023-06-14T09:30:22;2.92;;;1.63;;
39612;SDS011;25303;48.896;13.342;2023-06-14T09:33:05;3.78;;;1.73;;
39612;SDS011;25303;48.896;13.342;2023-06-14T09:35:53;2.40;;;1.63;;
39612;SDS011;25303;48.896;13.342;2023-06-14T09:38:38;3.53;;;1.23;;
39612;SDS011;25303;48.896;13.342;2023-06-14T09:41:30;2.42;;;1.60;;
39612;SDS011;25303;48.896;13.342;2023-06-14T09:44:14;3.60;;;1.75;;
39612;SDS011;25303;48.896;13.342;2023-06-14T09:47:02;2.65;;;1.40;;
39612;SDS011;25303;48.896;13.342;2023-06-14T09:49:47;4.53;;;1.65;;
39612;SDS011;25303;48.896;13.342;2023-06-14T09:52:30;4.03;;;1.35;;
39612;SDS011;25303;48.896;13.342;2023-06-14T09:55:15;3.40;;;1.80;;
39612;SDS011;25303;48.896;13.342;2023-06-14T09:57:59;2.25;;;1.63;;
39612;SDS011;25303;48.896;13.342;2023-06-14T10:00:48;3.72;;;1.60;;
39612;SDS011;25303;48.896;13.342;2023-06-14T10:03:33;2.53;;;1.58;;
39612;SDS011;25303;48.896;13.342;2023-06-14T10:06:39;2.85;;;1.60;;
39612;SDS011;25303;48.896;13.342;2023-06-14T10:09:23;2.75;;;1.83;;
39612;SDS011;25303;48.896;13.342;2023-06-14T10:12:09;2.85;;;1.80;;
39612;SDS011;25303;48.896;13.342;2023-06-14T10:14:52;2.53;;;1.52;;
39612;SDS011;25303;48.896;13.342;2023-06-14T10:17:39;2.50;;;1.60;;
39612;SDS011;25303;48.896;13.342;2023-06-14T10:20:30;2.35;;;1.60;;
39612;SDS011;25303;48.896;13.342;2023-06-14T10:23:19;3.08;;;1.75;;
39612;SDS011;25303;48.896;13.342;2023-06-14T10:26:05;2.85;;;1.60;;
39612;SDS011;25303;48.896;13.342;2023-06-14T10:29:00;2.47;;;1.65;;
39612;SDS011;25303;48.896;13.342;2023-06-14T10:31:44;1.92;;;1.30;;
39612;SDS011;25303;48.896;13.342;2023-06-14T10:34:28;2.92;;;1.80;;
39612;SDS011;25303;48.896;13.342;2023-06-14T10:39:56;2.47;;;1.40;;
39612;SDS011;25303;48.896;13.342;2023-06-14T10:42:40;3.00;;;1.67;;
39612;SDS011;25303;48.896;13.342;2023-06-14T10:45:35;2.28;;;1.75;;
39612;SDS011;25303;48.896;13.342;2023-06-14T10:48:29;2.63;;;1.75;;
39612;SDS011;25303;48.896;13.342;2023-06-14T10:51:16;2.40;;;1.70;;
39612;SDS011;25303;48.896;13.342;2023-06-14T10:54:01;3.03;;;1.70;;
39612;SDS011;25303;48.896;13.342;2023-06-14T10:56:46;3.97;;;1.80;;
39612;SDS011;25303;48.896;13.342;2023-06-14T10:59:29;3.72;;;1.60;;
39612;SDS011;25303;48.896;13.342;2023-06-14T11:02:20;5.18;;;1.35;;
39612;SDS011;25303;48.896;13.342;2023-06-14T11:08:16;3.75;;;1.63;;
39612;SDS011;25303;48.896;13.342;2023-06-14T11:11:09;4.55;;;1.55;;
39612;SDS011;25303;48.896;13.342;2023-06-14T11:13:55;2.83;;;1.70;;
39612;SDS011;25303;48.896;13.342;2023-06-14T11:16:38;3.28;;;1.77;;
39612;SDS011;25303;48.896;13.342;2023-06-14T11:19:22;2.80;;;1.80;;
39612;SDS011;25303;48.896;13.342;2023-06-14T11:22:06;2.20;;;1.38;;
39612;SDS011;25303;48.896;13.342;2023-06-14T11:24:50;2.00;;;1.20;;
39612;SDS011;25303;48.896;13.342;2023-06-14T11:27:33;1.83;;;1.33;;
39612;SDS011;25303;48.896;13.342;2023-06-14T11:30:16;2.00;;;1.40;;
39612;SDS011;25303;48.896;13.342;2023-06-14T11:33:00;3.65;;;1.52;;
39612;SDS011;25303;48.896;13.342;2023-06-14T11:35:45;1.90;;;1.20;;
39612;SDS011;25303;48.896;13.342;2023-06-14T11:41:11;3.05;;;1.50;;
39612;SDS011;25303;48.896;13.342;2023-06-14T11:43:54;2.40;;;1.70;;
39612;SDS011;25303;48.896;13.342;2023-06-14T11:46:37;2.30;;;1.38;;
39612;SDS011;25303;48.896;13.342;2023-06-14T11:49:20;2.97;;;1.50;;
39612;SDS011;25303;48.896;13.342;2023-06-14T11:52:05;2.80;;;1.45;;
39612;SDS011;25303;48.896;13.342;2023-06-14T11:54:49;4.57;;;1.70;;
39612;SDS011;25303;48.896;13.342;2023-06-14T11:57:33;3.05;;;1.38;;
39612;SDS011;25303;48.896;13.342;2023-06-14T12:00:17;2.30;;;1.67;;
39612;SDS011;25303;48.896;13.342;2023-06-14T12:03:03;3.75;;;1.60;;
39612;SDS011;25303;48.896;13.342;2023-06-14T12:05:46;2.97;;;1.65;;
39612;SDS011;25303;48.896;13.342;2023-06-14T12:08:33;3.63;;;1.40;;
39612;SDS011;25303;48.896;13.342;2023-06-14T12:11:22;2.60;;;1.55;;
39612;SDS011;25303;48.896;13.342;2023-06-14T12:14:05;2.20;;;1.33;;
39612;SDS011;25303;48.896;13.342;2023-06-14T12:16:48;2.30;;;1.30;;
39612;SDS011;25303;48.896;13.342;2023-06-14T12:19:31;2.00;;;1.40;;
39612;SDS011;25303;48.896;13.342;2023-06-14T12:22:15;4.80;;;1.70;;
39612;SDS011;25303;48.896;13.342;2023-06-14T12:25:00;3.83;;;1.67;;
39612;SDS011;25303;48.896;13.342;2023-06-14T12:27:46;3.90;;;1.55;;
39612;SDS011;25303;48.896;13.342;2023-06-14T12:30:29;2.42;;;1.70;;
39612;SDS011;25303;48.896;13.342;2023-06-14T12:33:13;1.90;;;1.60;;
39612;SDS011;25303;48.896;13.342;2023-06-14T12:35:56;1.95;;;1.50;;
39612;SDS011;25303;48.896;13.342;2023-06-14T12:38:39;3.65;;;1.92;;
39612;SDS011;25303;48.896;13.342;2023-06-14T12:41:25;4.32;;;2.03;;
39612;SDS011;25303;48.896;13.342;2023-06-14T12:44:09;2.28;;;1.90;;
39612;SDS011;25303;48.896;13.342;2023-06-14T12:46:53;3.53;;;2.00;;
39612;SDS011;25303;48.896;13.342;2023-06-14T12:49:36;4.95;;;2.05;;
39612;SDS011;25303;48.896;13.342;2023-06-14T12:52:19;2.67;;;1.77;;
39612;SDS011;25303;48.896;13.342;2023-06-14T12:55:03;2.10;;;1.73;;
39612;SDS011;25303;48.896;13.342;2023-06-14T12:57:48;2.53;;;1.50;;
39612;SDS011;25303;48.896;13.342;2023-06-14T13:00:32;3.58;;;1.50;;
39612;SDS011;25303;48.896;13.342;2023-06-14T13:03:16;2.00;;;1.70;;
39612;SDS011;25303;48.896;13.342;2023-06-14T13:05:59;2.25;;;1.65;;
39612;SDS011;25303;48.896;13.342;2023-06-14T13:08:42;3.17;;;1.85;;
39612;SDS011;25303;48.896;13.342;2023-06-14T13:11:25;2.92;;;1.80;;
39612;SDS011;25303;48.896;13.342;2023-06-14T13:14:10;4.13;;;1.95;;
39612;SDS011;25303;48.896;13.342;2023-06-14T13:17:07;3.60;;;1.98;;
39612;SDS011;25303;48.896;13.342;2023-06-14T13:19:51;3.85;;;1.88;;
39612;SDS011;25303;48.896;13.342;2023-06-14T13:22:34;2.70;;;1.67;;
39612;SDS011;25303;48.896;13.342;2023-06-14T13:25:17;2.28;;;1.73;;
39612;SDS011;25303;48.896;13.342;2023-06-14T13:28:00;2.40;;;1.40;;
39612;SDS011;25303;48.896;13.342;2023-06-14T13:30:45;2.72;;;1.50;;
39612;SDS011;25303;48.896;13.342;2023-06-14T13:33:28;3.72;;;2.00;;
39612;SDS011;25303;48.896;13.342;2023-06-14T13:36:12;3.92;;;1.92;;
39612;SDS011;25303;48.896;13.342;2023-06-14T13:38:55;2.17;;;1.60;;
39612;SDS011;25303;48.896;13.342;2023-06-14T13:41:41;2.20;;;1.70;;
39612;SDS011;25303;48.896;13.342;2023-06-14T13:44:24;2.72;;;1.80;;
39612;SDS011;25303;48.896;13.342;2023-06-14T13:47:09;4.80;;;2.13;;
39612;SDS011;25303;48.896;13.342;2023-06-14T13:49:52;2.88;;;1.98;;
39612;SDS011;25303;48.896;13.342;2023-06-14T13:52:35;3.20;;;2.10;;
39612;SDS011;25303;48.896;13.342;2023-06-14T13:55:19;3.70;;;1.88;;
39612;SDS011;25303;48.896;13.342;2023-06-14T13:58:02;2.80;;;1.73;;
39612;SDS011;25303;48.896;13.342;2023-06-14T14:00:45;3.78;;;1.85;;
39612;SDS011;25303;48.896;13.342;2023-06-14T14:03:31;2.40;;;1.70;;
39612;SDS011;25303;48.896;13.342;2023-06-14T14:08:58;2.38;;;1.70;;
39612;SDS011;25303;48.896;13.342;2023-06-14T14:11:42;4.07;;;1.80;;
39612;SDS011;25303;48.896;13.342;2023-06-14T14:14:24;2.75;;;1.80;;
39612;SDS011;25303;48.896;13.342;2023-06-14T14:17:08;3.85;;;1.80;;
39612;SDS011;25303;48.896;13.342;2023-06-14T14:19:54;2.73;;;1.70;;
39612;SDS011;25303;48.896;13.342;2023-06-14T14:22:37;2.20;;;1.35;;
39612;SDS011;25303;48.896;13.342;2023-06-14T14:25:20;5.28;;;1.60;;
39612;SDS011;25303;48.896;13.342;2023-06-14T14:28:03;2.67;;;1.80;;
39612;SDS011;25303;48.896;13.342;2023-06-14T14:30:46;4.53;;;2.08;;
39612;SDS011;25303;48.896;13.342;2023-06-14T14:33:30;2.20;;;1.67;;
39612;SDS011;25303;48.896;13.342;2023-06-14T14:36:14;2.53;;;1.85;;
39612;SDS011;25303;48.896;13.342;2023-06-14T14:38:57;4.40;;;1.92;;
39612;SDS011;25303;48.896;13.342;2023-06-14T14:41:40;2.67;;;2.00;;
39612;SDS011;25303;48.896;13.342;2023-06-14T14:44:23;2.38;;;1.88;;
39612;SDS011;25303;48.896;13.342;2023-06-14T14:47:06;3.10;;;2.00;;
39612;SDS011;25303;48.896;13.342;2023-06-14T14:49:50;2.67;;;1.75;;
39612;SDS011;25303;48.896;13.342;2023-06-14T14:52:35;3.97;;;1.77;;
39612;SDS011;25303;48.896;13.342;2023-06-14T14:55:18;2.67;;;1.58;;
39612;SDS011;25303;48.896;13.342;2023-06-14T14:58:01;2.58;;;1.77;;
39612;SDS011;25303;48.896;13.342;2023-06-14T15:00:44;2.20;;;1.70;;
39612;SDS011;25303;48.896;13.342;2023-06-14T15:03:28;2.83;;;2.00;;
39612;SDS011;25303;48.896;13.342;2023-06-14T15:06:11;2.45;;;1.58;;
39612;SDS011;25303;48.896;13.342;2023-06-14T15:08:55;3.28;;;1.83;;
39612;SDS011;25303;48.896;13.342;2023-06-14T15:11:39;3.13;;;1.63;;
39612;SDS011;25303;48.896;13.342;2023-06-14T15:14:24;5.03;;;1.90;;
39612;SDS011;25303;48.896;13.342;2023-06-14T15:17:07;3.65;;;1.40;;
39612;SDS011;25303;48.896;13.342;2023-06-14T15:19:51;2.72;;;1.75;;
39612;SDS011;25303;48.896;13.342;2023-06-14T15:22:34;2.72;;;2.00;;
39612;SDS011;25303;48.896;13.342;2023-06-14T15:25:18;3.00;;;1.88;;
39612;SDS011;25303;48.896;13.342;2023-06-14T15:28:02;3.03;;;1.58;;
39612;SDS011;25303;48.896;13.342;2023-06-14T15:30:48;2.70;;;1.80;;
39612;SDS011;25303;48.896;13.342;2023-06-14T15:33:31;1.77;;;1.58;;
39612;SDS011;25303;48.896;13.342;2023-06-14T15:36:15;3.25;;;1.75;;
39612;SDS011;25303;48.896;13.342;2023-06-14T15:38:58;2.92;;;1.70;;
39612;SDS011;25303;48.896;13.342;2023-06-14T15:41:42;3.53;;;2.17;;
39612;SDS011;25303;48.896;13.342;2023-06-14T15:44:26;3.00;;;1.75;;
39612;SDS011;25303;48.896;13.342;2023-06-14T15:47:09;2.60;;;1.90;;
39612;SDS011;25303;48.896;13.342;2023-06-14T15:49:52;5.43;;;2.03;;
39612;SDS011;25303;48.896;13.342;2023-06-14T15:52:36;2.90;;;1.80;;
39612;SDS011;25303;48.896;13.342;2023-06-14T15:55:20;2.30;;;1.70;;
39612;SDS011;25303;48.896;13.342;2023-06-14T15:58:05;2.35;;;1.65;;
39612;SDS011;25303;48.896;13.342;2023-06-14T16:00:49;4.07;;;1.70;;
39612;SDS011;25303;48.896;13.342;2023-06-14T16:03:32;2.33;;;1.55;;
39612;SDS011;25303;48.896;13.342;2023-06-14T16:06:15;2.55;;;1.60;;
39612;SDS011;25303;48.896;13.342;2023-06-14T16:08:58;2.30;;;1.70;;
39612;SDS011;25303;48.896;13.342;2023-06-14T16:11:41;3.05;;;2.00;;
39612;SDS011;25303;48.896;13.342;2023-06-14T16:14:25;3.33;;;1.58;;
39612;SDS011;25303;48.896;13.342;2023-06-14T16:17:08;2.03;;;1.52;;
39612;SDS011;25303;48.896;13.342;2023-06-14T16:19:53;4.40;;;1.67;;
39612;SDS011;25303;48.896;13.342;2023-06-14T16:22:36;2.15;;;1.70;;
39612;SDS011;25303;48.896;13.342;2023-06-14T16:25:19;2.55;;;1.80;;
39612;SDS011;25303;48.896;13.342;2023-06-14T16:28:03;2.17;;;1.30;;
39612;SDS011;25303;48.896;13.342;2023-06-14T16:30:48;3.15;;;1.52;;
39612;SDS011;25303;48.896;13.342;2023-06-14T16:33:32;4.15;;;1.80;;
39612;SDS011;25303;48.896;13.342;2023-06-14T16:36:15;3.10;;;1.63;;
39612;SDS011;25303;48.896;13.342;2023-06-14T16:38:58;7.95;;;1.67;;
39612;SDS011;25303;48.896;13.342;2023-06-14T16:41:41;2.53;;;1.60;;